Time;durP1;ratioP1;P1;durP2;ratioP2;P2;SDS_P1;SDS_P2;PMS_P1;PMS_P2;Temp;Humidity;BMP_temperature;BMP_pressure;BME280_temperature;BME280_humidity;BME280_pressure;Samples;Min_cycle;Max_cycle;Signal;HPM_P1;HPM_P2
2022/10/19 00:01:11;;;;;;;11.35;3.75;;;;;;;8.18;100.00;102887.91;5086552;28;20056;-66
2022/10/19 00:03:37;;;;;;;9.40;4.18;;;;;;;8.21;100.00;102901.22;5094995;28;20032;-67
2022/10/19 00:06:18;;;;;;;10.05;3.65;;;;;;;8.18;100.00;102903.63;5083235;28;20020;-68
2022/10/19 00:08:44;;;;;;;15.02;4.40;;;;;;;8.13;100.00;102900.75;5080574;28;20086;-68
2022/10/19 00:11:10;;;;;;;8.75;3.80;;;;;;;8.10;100.00;102904.09;5080485;28;20027;-66
2022/10/19 00:13:36;;;;;;;8.52;4.50;;;;;;;8.12;100.00;102901.56;5083103;28;20039;-67
2022/10/19 00:16:07;;;;;;;7.68;3.72;;;;;;;8.10;100.00;102901.47;5079070;28;20103;-68
2022/10/19 00:18:33;;;;;;;8.48;4.38;;;;;;;8.08;100.00;102896.94;5082582;28;20436;-66
2022/10/19 00:21:06;;;;;;;8.40;4.10;;;;;;;8.05;100.00;102896.78;5082451;28;20024;-67
2022/10/19 00:23:31;;;;;;;8.07;3.92;;;;;;;8.01;100.00;102898.28;5085395;28;20035;-66
2022/10/19 00:25:57;;;;;;;13.40;3.97;;;;;;;7.94;100.00;102899.63;5075176;28;20032;-66
2022/10/19 00:28:23;;;;;;;7.10;3.72;;;;;;;7.89;100.00;102892.31;5089998;28;20031;-66
2022/10/19 00:30:48;;;;;;;7.20;3.53;;;;;;;7.83;100.00;102905.06;5094685;28;20082;-67
2022/10/19 00:33:19;;;;;;;10.75;3.53;;;;;;;7.82;100.00;102898.00;5089772;28;20029;-67
2022/10/19 00:35:47;;;;;;;8.55;3.55;;;;;;;7.76;100.00;102899.44;5084904;28;20020;-67
2022/10/19 00:38:12;;;;;;;12.15;3.50;;;;;;;7.74;100.00;102893.19;5087514;28;20031;-66
2022/10/19 00:40:39;;;;;;;11.95;4.05;;;;;;;7.73;100.00;102890.47;5092330;28;20032;-67
2022/10/19 00:43:14;;;;;;;8.50;4.00;;;;;;;7.67;100.00;102893.63;5094384;28;20081;-66
2022/10/19 00:45:39;;;;;;;9.20;3.90;;;;;;;7.61;100.00;102901.13;5089670;28;20031;-67
2022/10/19 00:48:05;;;;;;;10.85;3.97;;;;;;;7.61;100.00;102903.75;5082151;28;20463;-67
2022/10/19 00:50:31;;;;;;;12.57;4.78;;;;;;;7.58;100.00;102906.16;5088369;28;20058;-67
2022/10/19 00:52:56;;;;;;;9.93;3.83;;;;;;;7.57;100.00;102905.25;5093052;28;20448;-68
2022/10/19 00:55:23;;;;;;;7.70;3.53;;;;;;;7.51;100.00;102899.63;5090124;28;20484;-67
2022/10/19 00:57:48;;;;;;;10.27;4.20;;;;;;;7.46;100.00;102905.38;5078539;28;20056;-66
2022/10/19 01:00:14;;;;;;;9.95;4.00;;;;;;;7.48;100.00;102898.53;5088616;28;20051;-66
2022/10/19 01:02:39;;;;;;;6.82;3.33;;;;;;;7.45;100.00;102908.81;5080368;28;20036;-67
2022/10/19 01:05:05;;;;;;;6.13;4.10;;;;;;;7.44;100.00;102902.69;5084388;28;20024;-67
2022/10/19 01:07:31;;;;;;;8.02;3.20;;;;;;;7.35;100.00;102899.47;5080744;28;20085;-67
2022/10/19 01:09:58;;;;;;;14.05;4.15;;;;;;;7.31;100.00;102889.63;5075455;28;20020;-66
2022/10/19 01:12:42;;;;;;;6.38;3.42;;;;;;;7.31;100.00;102895.78;5078646;28;20076;-66
2022/10/19 01:15:22;;;;;;;5.93;3.53;;;;;;;7.30;100.00;102883.50;5084686;28;20425;-66
2022/10/19 01:18:05;;;;;;;8.35;4.30;;;;;;;7.28;100.00;102885.09;5089541;28;20059;-66
2022/10/19 01:21:14;;;;;;;10.45;4.10;;;;;;;7.31;100.00;102890.53;5090427;28;20036;-66
2022/10/19 01:24:02;;;;;;;11.63;4.10;;;;;;;7.30;100.00;102883.50;5075791;28;20028;-67
2022/10/19 01:26:52;;;;;;;11.77;4.20;;;;;;;7.39;100.00;102888.38;5074214;28;20495;-66
2022/10/19 01:29:20;;;;;;;6.60;4.03;;;;;;;7.35;100.00;102878.53;5080164;28;20020;-67
2022/10/19 01:31:48;;;;;;;10.25;4.20;;;;;;;7.35;100.00;102886.38;5092858;28;20036;-67
2022/10/19 01:34:32;;;;;;;7.53;3.97;;;;;;;7.32;100.00;102883.56;5092947;28;20368;-66
2022/10/19 01:37:16;;;;;;;14.38;4.13;;;;;;;7.27;100.00;102867.59;5073890;28;20086;-66
2022/10/19 01:40:00;;;;;;;9.07;3.85;;;;;;;7.20;100.00;102871.53;5087399;28;20042;-68
2022/10/19 01:42:31;;;;;;;8.45;4.00;;;;;;;7.17;100.00;102866.09;5092108;28;20032;-68
2022/10/19 01:45:03;;;;;;;12.23;4.00;;;;;;;7.16;100.00;102868.59;5082963;28;20074;-67
2022/10/19 01:47:54;;;;;;;5.00;3.42;;;;;;;7.18;100.00;102864.38;5075209;28;20074;-67
2022/10/19 01:50:48;;;;;;;9.40;4.03;;;;;;;7.16;100.00;102864.28;5080850;28;20039;-66
2022/10/19 01:53:17;;;;;;;8.93;3.63;;;;;;;7.13;100.00;102865.81;5075002;28;20035;-68
2022/10/19 01:55:44;;;;;;;7.57;3.70;;;;;;;7.08;100.00;102874.28;5090552;28;20078;-67
2022/10/19 01:58:15;;;;;;;7.68;4.38;;;;;;;7.06;100.00;102873.25;5086461;28;20081;-67
2022/10/19 02:00:44;;;;;;;6.28;3.90;;;;;;;7.04;100.00;102885.34;5080368;28;20561;-67
2022/10/19 02:03:11;;;;;;;9.07;3.88;;;;;;;7.00;100.00;102878.13;5085602;28;20031;-67
2022/10/19 02:05:39;;;;;;;9.07;3.53;;;;;;;6.96;100.00;102876.09;5075403;28;20124;-67
2022/10/19 02:08:19;;;;;;;7.95;3.83;;;;;;;6.92;100.00;102872.38;5089901;28;20024;-67
2022/10/19 02:10:45;;;;;;;9.05;3.90;;;;;;;6.88;100.00;102873.00;5091129;28;20032;-66
2022/10/19 02:13:14;;;;;;;7.78;3.78;;;;;;;6.88;100.00;102877.34;5090676;28;21093;-68
2022/10/19 02:15:43;;;;;;;5.93;3.75;;;;;;;6.87;100.00;102870.28;5088679;28;20066;-66
2022/10/19 02:18:10;;;;;;;6.50;3.72;;;;;;;6.85;100.00;102858.78;5087794;28;20035;-67
2022/10/19 02:20:36;;;;;;;12.25;4.18;;;;;;;6.84;100.00;102857.00;5086534;28;20069;-68
2022/10/19 02:23:04;;;;;;;6.65;3.90;;;;;;;6.89;100.00;102847.72;5092519;28;20028;-68
2022/10/19 02:25:29;;;;;;;11.43;3.85;;;;;;;6.86;100.00;102844.91;5075154;28;20040;-67
2022/10/19 02:27:55;;;;;;;6.88;3.58;;;;;;;6.80;100.00;102841.91;5079470;28;20081;-68
2022/10/19 02:30:21;;;;;;;8.38;4.15;;;;;;;6.75;100.00;102836.38;5081100;28;20403;-67
2022/10/19 02:32:46;;;;;;;8.10;4.20;;;;;;;6.73;100.00;102836.28;5092512;28;20020;-68
2022/10/19 02:35:13;;;;;;;7.78;4.03;;;;;;;6.83;100.00;102832.53;5088885;28;20032;-66
2022/10/19 02:37:39;;;;;;;4.65;3.50;;;;;;;6.78;100.00;102828.72;5087162;28;20020;-67
2022/10/19 02:40:06;;;;;;;7.68;4.20;;;;;;;6.80;100.00;102831.44;5087415;28;20028;-67
2022/10/19 02:43:00;;;;;;;7.10;4.20;;;;;;;6.97;100.00;102838.63;5089722;28;20028;-67
2022/10/19 02:45:33;;;;;;;6.20;4.30;;;;;;;6.99;100.00;102837.03;5089241;28;20036;-67
2022/10/19 02:48:04;;;;;;;7.18;4.15;;;;;;;6.95;100.00;102835.03;5085985;28;20044;-66
2022/10/19 02:50:29;;;;;;;9.55;4.88;;;;;;;6.92;100.00;102837.47;5073804;28;20035;-68
2022/10/19 02:52:57;;;;;;;6.85;4.43;;;;;;;6.92;100.00;102832.22;5081218;28;20408;-67
2022/10/19 02:55:23;;;;;;;9.48;5.03;;;;;;;6.93;100.00;102828.78;5077615;28;20094;-66
2022/10/19 02:57:48;;;;;;;9.55;4.68;;;;;;;6.87;100.00;102825.78;5088882;28;20083;-67
2022/10/19 03:00:14;;;;;;;7.75;4.13;;;;;;;6.87;100.00;102823.19;5073766;28;20029;-66
2022/10/19 03:02:39;;;;;;;7.15;4.30;;;;;;;6.86;100.00;102821.34;5090951;28;20016;-67
2022/10/19 03:05:05;;;;;;;7.43;4.63;;;;;;;6.85;100.00;102819.53;5089734;28;20024;-66
2022/10/19 03:07:30;;;;;;;10.80;5.53;;;;;;;6.91;100.00;102822.56;5078888;28;20074;-68
2022/10/19 03:09:56;;;;;;;9.88;4.32;;;;;;;6.87;100.00;102820.56;5082747;28;20051;-67
2022/10/19 03:12:21;;;;;;;15.65;5.45;;;;;;;6.81;100.00;102828.00;5090676;28;20105;-66
2022/10/19 03:14:46;;;;;;;9.95;5.90;;;;;;;6.84;100.00;102828.22;5088688;28;20169;-66
2022/10/19 03:17:12;;;;;;;6.88;4.80;;;;;;;6.77;100.00;102826.91;5088374;28;20423;-67
2022/10/19 03:19:37;;;;;;;13.80;5.85;;;;;;;6.75;100.00;102832.06;5088622;28;20028;-67
2022/10/19 03:22:03;;;;;;;8.85;4.95;;;;;;;6.73;100.00;102823.19;5071597;28;20024;-67
2022/10/19 03:24:30;;;;;;;7.72;4.65;;;;;;;6.67;100.00;102819.28;5076289;28;20033;-67
2022/10/19 03:26:55;;;;;;;10.30;5.15;;;;;;;6.66;100.00;102818.38;5093578;28;20032;-67
2022/10/19 03:29:20;;;;;;;8.82;4.65;;;;;;;6.70;100.00;102819.47;5086483;28;20028;-67
2022/10/19 03:31:46;;;;;;;10.93;5.63;;;;;;;6.64;100.00;102813.84;5091149;28;20024;-67
2022/10/19 03:34:11;;;;;;;8.32;5.15;;;;;;;6.58;100.00;102814.38;5091947;28;20025;-66
2022/10/19 03:36:38;;;;;;;11.57;5.30;;;;;;;6.54;100.00;102808.03;5078624;28;20028;-67
2022/10/19 03:39:08;;;;;;;17.65;5.88;;;;;;;6.53;100.00;102805.31;5088091;28;20085;-67
2022/10/19 03:41:35;;;;;;;7.70;5.85;;;;;;;6.54;100.00;102807.13;5092077;28;20028;-67
2022/10/19 03:44:01;;;;;;;13.23;6.45;;;;;;;6.55;100.00;102806.31;5090904;28;20035;-67
2022/10/19 03:46:26;;;;;;;10.85;6.22;;;;;;;6.52;100.00;102798.25;5089207;28;20012;-67
2022/10/19 03:48:53;;;;;;;13.77;6.57;;;;;;;6.50;100.00;102810.34;5089748;28;20956;-67
2022/10/19 03:51:23;;;;;;;10.95;6.88;;;;;;;6.50;100.00;102798.16;5094637;28;20039;-68
2022/10/19 03:53:53;;;;;;;12.02;7.00;;;;;;;6.53;100.00;102800.09;5091924;28;20491;-67
2022/10/19 03:56:21;;;;;;;9.70;6.72;;;;;;;6.56;100.00;102800.28;5089174;28;20048;-67
2022/10/19 03:58:48;;;;;;;12.02;6.78;;;;;;;6.58;100.00;102803.91;5091880;28;20032;-66
2022/10/19 04:01:15;;;;;;;10.23;7.07;;;;;;;6.60;100.00;102806.63;5087589;28;20034;-66
2022/10/19 04:03:41;;;;;;;12.98;7.35;;;;;;;6.70;100.00;102809.00;5094401;28;20035;-67
2022/10/19 04:06:15;;;;;;;14.55;7.50;;;;;;;6.71;100.00;102816.03;5089083;28;20035;-66
2022/10/19 04:08:41;;;;;;;10.10;6.43;;;;;;;6.71;100.00;102810.81;5087076;28;20036;-66
2022/10/19 04:11:12;;;;;;;8.25;6.60;;;;;;;6.71;100.00;102811.72;5079320;28;20522;-66
2022/10/19 04:13:37;;;;;;;11.75;6.30;;;;;;;6.68;100.00;102806.28;5078832;28;20037;-67
2022/10/19 04:16:03;;;;;;;10.10;6.57;;;;;;;6.69;100.00;102805.50;5087660;28;20066;-67
2022/10/19 04:18:28;;;;;;;7.43;6.05;;;;;;;6.64;100.00;102801.66;5093060;28;20494;-66
2022/10/19 04:20:56;;;;;;;12.93;6.28;;;;;;;6.61;100.00;102798.88;5094320;28;20380;-67
2022/10/19 04:23:21;;;;;;;10.73;6.93;;;;;;;6.64;100.00;102790.31;5092107;28;20470;-67
2022/10/19 04:25:46;;;;;;;8.32;6.32;;;;;;;6.58;100.00;102798.69;5080185;28;20028;-67
2022/10/19 04:28:12;;;;;;;9.30;5.63;;;;;;;6.54;100.00;102786.22;5094793;28;20036;-66
2022/10/19 04:30:37;;;;;;;8.45;5.57;;;;;;;6.52;100.00;102788.69;5083194;28;20025;-66
2022/10/19 04:33:02;;;;;;;10.48;5.90;;;;;;;6.55;100.00;102782.75;5078104;28;20025;-67
2022/10/19 04:35:28;;;;;;;13.00;6.55;;;;;;;6.59;100.00;102787.38;5084743;28;20539;-67
2022/10/19 04:37:53;;;;;;;11.82;7.25;;;;;;;6.62;100.00;102790.22;5089688;28;20487;-67
2022/10/19 04:40:18;;;;;;;11.38;5.95;;;;;;;6.69;100.00;102797.63;5088427;28;20028;-67
2022/10/19 04:42:44;;;;;;;9.65;5.53;;;;;;;6.75;100.00;102803.28;5092743;28;20054;-67
2022/10/19 04:45:09;;;;;;;8.00;5.30;;;;;;;6.77;100.00;102800.75;5093557;28;20107;-67
2022/10/19 04:47:35;;;;;;;7.13;5.05;;;;;;;6.77;100.00;102805.06;5079241;28;20024;-68
2022/10/19 04:50:00;;;;;;;7.85;5.38;;;;;;;6.80;100.00;102802.66;5093764;28;20108;-67
2022/10/19 04:52:25;;;;;;;11.13;5.15;;;;;;;6.78;100.00;102799.94;5082864;28;20028;-67
2022/10/19 04:54:51;;;;;;;7.93;5.25;;;;;;;6.82;100.00;102801.03;5091306;28;20032;-67
2022/10/19 04:57:16;;;;;;;6.88;5.15;;;;;;;6.86;100.00;102801.34;5080676;28;20514;-66
2022/10/19 04:59:41;;;;;;;10.25;5.47;;;;;;;6.88;100.00;102809.28;5085789;28;20023;-66
2022/10/19 05:02:07;;;;;;;11.82;5.40;;;;;;;6.91;100.00;102805.13;5090012;28;20028;-68
2022/10/19 05:04:32;;;;;;;6.78;4.90;;;;;;;6.86;100.00;102803.03;5082976;28;20040;-67
2022/10/19 05:06:57;;;;;;;10.60;5.10;;;;;;;6.91;100.00;102799.00;5090938;28;20464;-66
2022/10/19 05:09:23;;;;;;;9.13;5.25;;;;;;;6.88;100.00;102801.44;5086983;28;20752;-66
2022/10/19 05:11:49;;;;;;;10.20;5.32;;;;;;;6.89;100.00;102808.47;5085295;28;20032;-67
2022/10/19 05:14:15;;;;;;;11.15;6.40;;;;;;;6.93;100.00;102813.06;5087350;28;20020;-67
2022/10/19 05:16:40;;;;;;;13.80;5.15;;;;;;;6.89;100.00;102816.31;5084269;28;20026;-66
2022/10/19 05:19:05;;;;;;;13.20;5.72;;;;;;;6.89;100.00;102803.22;5092024;28;20479;-67
2022/10/19 05:21:31;;;;;;;11.52;5.97;;;;;;;6.91;100.00;102799.00;5082834;28;20036;-66
2022/10/19 05:23:56;;;;;;;10.38;5.30;;;;;;;6.89;100.00;102795.38;5081940;28;20032;-66
2022/10/19 05:26:25;;;;;;;10.60;5.40;;;;;;;6.86;100.00;102792.56;5082053;28;20060;-67
2022/10/19 05:28:55;;;;;;;9.88;5.82;;;;;;;6.83;100.00;102792.38;5086806;28;20032;-66
2022/10/19 05:31:23;;;;;;;7.22;5.53;;;;;;;6.84;100.00;102791.59;5094434;28;20084;-67
2022/10/19 05:33:48;;;;;;;15.43;5.60;;;;;;;6.88;100.00;102809.28;5089245;28;20028;-68
2022/10/19 05:36:25;;;;;;;9.98;5.75;;;;;;;6.88;100.00;102809.28;5087712;28;20474;-66
2022/10/19 05:38:52;;;;;;;7.78;5.20;;;;;;;6.85;100.00;102803.84;5086979;28;20020;-67
2022/10/19 05:41:18;;;;;;;11.32;5.00;;;;;;;6.85;100.00;102798.59;5091496;28;20101;-67
2022/10/19 05:43:44;;;;;;;10.05;5.00;;;;;;;6.81;100.00;102796.59;5093395;28;20036;-67
2022/10/19 05:46:13;;;;;;;8.88;4.85;;;;;;;6.75;100.00;102797.13;5076945;28;20471;-66
2022/10/19 05:48:39;;;;;;;9.90;5.10;;;;;;;6.72;100.00;102797.81;5092194;28;20042;-67
2022/10/19 05:51:09;;;;;;;9.05;5.18;;;;;;;6.73;100.00;102799.66;5089628;28;20032;-67
2022/10/19 05:53:34;;;;;;;10.77;5.63;;;;;;;6.75;100.00;102792.81;5084950;28;20028;-65
2022/10/19 05:56:00;;;;;;;8.07;5.30;;;;;;;6.69;100.00;102787.19;5088366;28;20141;-68
2022/10/19 05:58:26;;;;;;;8.57;6.45;;;;;;;6.75;100.00;102781.44;5073809;28;20023;-66
2022/10/19 06:00:56;;;;;;;9.05;5.45;;;;;;;6.65;100.00;102774.72;5074800;28;20448;-66
2022/10/19 06:03:23;;;;;;;9.20;4.97;;;;;;;6.64;100.00;102772.00;5081263;28;20523;-66
2022/10/19 06:05:49;;;;;;;10.02;4.97;;;;;;;6.58;100.00;102773.41;5085681;28;20107;-67
2022/10/19 06:08:16;;;;;;;11.00;5.53;;;;;;;6.58;100.00;102777.75;5084176;28;20081;-66
2022/10/19 06:10:42;;;;;;;20.60;6.18;;;;;;;6.57;100.00;102775.94;5091162;28;20024;-67
2022/10/19 06:13:08;;;;;;;10.43;5.05;;;;;;;6.56;100.00;102776.72;5093787;28;20034;-68
2022/10/19 06:15:35;;;;;;;10.23;6.43;;;;;;;6.52;100.00;102766.88;5081029;28;20020;-67
2022/10/19 06:18:03;;;;;;;6.63;5.20;;;;;;;6.53;100.00;102760.84;5085748;28;20027;-66
2022/10/19 06:20:29;;;;;;;10.32;5.53;;;;;;;6.55;100.00;102764.44;5079836;28;20508;-67
2022/10/19 06:22:54;;;;;;;9.32;6.40;;;;;;;6.65;100.00;102769.47;5086017;28;20115;-67
2022/10/19 06:25:19;;;;;;;10.10;6.70;;;;;;;6.68;100.00;102763.53;5093503;28;20368;-68
2022/10/19 06:27:45;;;;;;;12.77;5.68;;;;;;;6.65;100.00;102769.47;5080972;28;20039;-67
2022/10/19 06:30:11;;;;;;;11.55;5.85;;;;;;;6.66;100.00;102758.22;5079235;28;20032;-67
2022/10/19 06:32:36;;;;;;;11.23;6.40;;;;;;;6.69;100.00;102754.88;5073573;28;20028;-66
2022/10/19 06:35:02;;;;;;;14.43;7.10;;;;;;;6.69;100.00;102761.00;5076458;28;20012;-66
2022/10/19 06:37:27;;;;;;;12.23;6.78;;;;;;;6.75;100.00;102763.09;5080106;28;20032;-65
2022/10/19 06:39:52;;;;;;;15.35;7.00;;;;;;;6.82;100.00;102767.91;5084978;28;20028;-67
2022/10/19 06:42:18;;;;;;;10.50;6.43;;;;;;;6.82;100.00;102767.03;5073817;28;20082;-66
2022/10/19 06:44:43;;;;;;;12.82;6.82;;;;;;;6.84;100.00;102765.41;5079265;28;20039;-67
2022/10/19 06:47:08;;;;;;;14.35;6.35;;;;;;;6.86;100.00;102772.56;5088380;28;20095;-78
2022/10/19 06:49:34;;;;;;;10.55;5.70;;;;;;;6.91;100.00;102770.22;5084635;28;20028;-67
2022/10/19 06:52:00;;;;;;;15.43;6.25;;;;;;;6.98;100.00;102780.25;5093200;28;20464;-68
2022/10/19 06:54:26;;;;;;;12.90;5.35;;;;;;;7.06;100.00;102778.13;5078491;28;20101;-68
2022/10/19 06:56:51;;;;;;;15.90;5.93;;;;;;;7.12;100.00;102780.22;5092537;28;20067;-68
2022/10/19 06:59:16;;;;;;;13.30;6.43;;;;;;;7.16;100.00;102776.97;5090811;28;20076;-68
2022/10/19 07:01:42;;;;;;;11.00;5.88;;;;;;;7.16;100.00;102776.97;5084399;28;20040;-67
2022/10/19 07:04:07;;;;;;;9.45;5.05;;;;;;;7.12;100.00;102775.88;5084053;28;20094;-67
2022/10/19 07:06:32;;;;;;;11.77;5.75;;;;;;;7.15;100.00;102767.31;5095203;28;20024;-67
2022/10/19 07:08:58;;;;;;;12.32;6.18;;;;;;;7.19;100.00;102764.06;5096817;28;20030;-68
2022/10/19 07:11:23;;;;;;;12.52;5.65;;;;;;;7.24;100.00;102770.50;5086009;28;20398;-68
2022/10/19 07:13:50;;;;;;;14.02;5.15;;;;;;;7.23;100.00;102763.44;5083089;28;20024;-68
2022/10/19 07:16:17;;;;;;;11.43;5.18;;;;;;;7.27;100.00;102757.59;5088105;28;20021;-68
2022/10/19 07:18:43;;;;;;;12.07;5.43;;;;;;;7.30;100.00;102765.66;5078329;28;20027;-67
2022/10/19 07:21:11;;;;;;;11.05;5.70;;;;;;;7.33;100.00;102763.19;5087398;28;20020;-68
2022/10/19 07:23:38;;;;;;;9.52;6.00;;;;;;;7.36;100.00;102768.63;5081252;28;20036;-68
2022/10/19 07:26:07;;;;;;;14.63;5.47;;;;;;;7.40;100.00;102778.47;5086572;28;20031;-68
2022/10/19 07:28:34;;;;;;;8.85;5.20;;;;;;;7.42;100.00;102789.06;5082628;28;20039;-68
2022/10/19 07:31:05;;;;;;;7.93;4.65;;;;;;;7.46;100.00;102779.66;5084074;28;20115;-67
2022/10/19 07:33:30;;;;;;;14.05;5.10;;;;;;;7.50;100.00;102782.56;5080479;28;20024;-68
2022/10/19 07:36:01;;;;;;;14.70;5.88;;;;;;;7.52;100.00;102778.31;5080639;28;20034;-67
2022/10/19 07:38:26;;;;;;;12.57;5.03;;;;;;;7.51;100.00;102778.22;5090156;28;20028;-68
2022/10/19 07:40:59;;;;;;;8.75;5.25;;;;;;;7.57;100.00;102778.63;5095642;28;20035;-68
2022/10/19 07:43:24;;;;;;;9.60;4.78;;;;;;;7.59;100.00;102787.44;5081050;28;20024;-68
2022/10/19 07:45:55;;;;;;;15.10;6.03;;;;;;;7.65;100.00;102786.91;5089112;28;20387;-68
2022/10/19 07:48:21;;;;;;;7.75;5.38;;;;;;;7.71;100.00;102782.94;5081446;28;20039;-67
2022/10/19 07:50:47;;;;;;;9.73;4.93;;;;;;;7.78;100.00;102788.56;5081789;28;20032;-67
2022/10/19 07:53:13;;;;;;;15.15;6.18;;;;;;;7.82;100.00;102782.69;5079219;28;20381;-68
2022/10/19 07:55:38;;;;;;;9.52;6.00;;;;;;;7.88;100.00;102780.41;5079813;28;20096;-68
2022/10/19 07:58:03;;;;;;;14.48;5.60;;;;;;;7.92;100.00;102777.16;5085077;28;20050;-67
2022/10/19 08:00:29;;;;;;;13.10;5.45;;;;;;;7.97;100.00;102778.31;5080275;28;20069;-68
2022/10/19 08:02:54;;;;;;;16.67;6.20;;;;;;;8.06;100.00;102775.34;5075500;28;20631;-68
2022/10/19 08:05:19;;;;;;;15.30;5.30;;;;;;;8.13;100.00;102777.50;5090390;28;20036;-67
2022/10/19 08:07:45;;;;;;;10.55;4.93;;;;;;;8.18;100.00;102772.50;5080432;28;20154;-68
2022/10/19 08:10:11;;;;;;;11.98;4.38;;;;;;;8.26;100.00;102768.63;5085516;28;20169;-70
2022/10/19 08:12:36;;;;;;;11.10;5.18;;;;;;;8.35;100.00;102763.91;5084235;28;20046;-70
2022/10/19 08:15:05;;;;;;;21.60;4.78;;;;;;;8.43;100.00;102759.97;5076426;28;20166;-69
2022/10/19 08:17:30;;;;;;;12.77;4.35;;;;;;;8.52;100.00;102757.03;5076769;28;20028;-70
2022/10/19 08:19:56;;;;;;;16.88;4.45;;;;;;;8.61;100.00;102756.63;5079141;28;20028;-69
2022/10/19 08:22:21;;;;;;;11.05;5.03;;;;;;;8.69;100.00;102744.81;5083025;28;20107;-69
2022/10/19 08:24:47;;;;;;;11.98;4.22;;;;;;;8.79;100.00;102741.00;5084046;28;20028;-70
2022/10/19 08:27:13;;;;;;;14.25;4.32;;;;;;;8.83;100.00;102736.78;5087694;28;20046;-70
2022/10/19 08:29:39;;;;;;;14.30;3.72;;;;;;;8.96;100.00;102739.28;5078270;28;20142;-70
2022/10/19 08:32:04;;;;;;;11.23;3.80;;;;;;;9.02;100.00;102734.38;5077596;28;20528;-69
2022/10/19 08:34:29;;;;;;;6.93;3.40;;;;;;;9.09;100.00;102731.22;5074774;28;20021;-70
2022/10/19 08:36:55;;;;;;;12.70;3.30;;;;;;;9.19;100.00;102721.22;5081662;28;20089;-70
2022/10/19 08:39:20;;;;;;;11.35;4.05;;;;;;;9.25;100.00;102719.81;5092316;28;20027;-69
2022/10/19 08:41:45;;;;;;;12.73;3.95;;;;;;;9.37;100.00;102719.56;5086939;28;20495;-70
2022/10/19 08:44:29;;;;;;;10.20;3.75;;;;;;;9.46;100.00;102727.00;5085880;28;20028;-70
2022/10/19 08:47:13;;;;;;;10.45;3.70;;;;;;;9.57;100.00;102714.41;5074541;28;20035;-70
2022/10/19 08:49:39;;;;;;;4.70;2.80;;;;;;;9.68;100.00;102721.09;5085727;28;20391;-69
2022/10/19 08:52:10;;;;;;;5.15;2.50;;;;;;;9.78;100.00;102718.13;5083893;28;20024;-70
2022/10/19 08:54:55;;;;;;;8.02;2.63;;;;;;;9.98;100.00;102717.31;5079441;28;20035;-70
2022/10/19 08:57:38;;;;;;;8.75;2.90;;;;;;;10.19;100.00;102722.72;5087565;28;136560;-70
2022/10/19 09:00:39;;;;;;;7.82;2.10;;;;;;;10.46;100.00;102731.06;5086607;28;20047;-71
2022/10/19 09:03:32;;;;;;;8.20;2.17;;;;;;;10.90;100.00;102724.31;5048605;28;20048;-71
2022/10/19 09:06:19;;;;;;;10.77;2.50;;;;;;;11.26;100.00;102731.19;5087463;28;20073;-69
2022/10/19 09:08:45;;;;;;;3.95;1.95;;;;;;;11.44;100.00;102729.34;5085051;28;20399;-68
2022/10/19 09:11:11;;;;;;;6.65;2.25;;;;;;;11.63;100.00;102733.66;5083943;28;20027;-68
2022/10/19 09:13:45;;;;;;;9.98;2.67;;;;;;;11.83;100.00;102720.44;5086103;28;20030;-68
2022/10/19 09:16:18;;;;;;;5.82;2.60;;;;;;;11.93;100.00;102717.31;5087774;28;20031;-67
2022/10/19 09:18:45;;;;;;;5.35;1.92;;;;;;;12.02;100.00;102719.50;5084083;28;20029;-68
2022/10/19 09:21:37;;;;;;;6.03;2.30;;;;;;;12.27;100.00;102723.09;5085543;28;20464;-68
2022/10/19 09:24:18;;;;;;;8.55;2.22;;;;;;;12.42;100.00;102717.53;5084322;28;20115;-68
2022/10/19 09:26:52;;;;;;;6.13;2.13;;;;;;;12.55;100.00;102737.41;5081974;28;20086;-69
2022/10/19 09:29:28;;;;;;;9.40;1.40;;;;;;;12.63;100.00;102733.31;5083272;28;20035;-69
2022/10/19 09:32:02;;;;;;;10.30;2.25;;;;;;;12.80;100.00;102731.31;5079689;28;20410;-69
2022/10/19 09:34:33;;;;;;;7.70;1.90;;;;;;;12.85;100.00;102727.09;5087249;28;20099;-68
2022/10/19 09:36:59;;;;;;;7.93;2.13;;;;;;;13.06;100.00;102734.03;5087140;28;20021;-68
2022/10/19 09:39:28;;;;;;;9.43;2.63;;;;;;;13.14;100.00;102729.91;5083023;28;20024;-69
2022/10/19 09:41:56;;;;;;;3.83;1.48;;;;;;;13.16;100.00;102721.19;5081867;28;20531;-70
2022/10/19 09:44:23;;;;;;;6.15;1.50;;;;;;;13.05;100.00;102722.56;5086011;28;20093;-69
2022/10/19 09:47:00;;;;;;;7.40;1.88;;;;;;;13.13;100.00;102718.44;5077662;28;20024;-68
2022/10/19 09:50:04;;;;;;;13.13;2.25;;;;;;;13.29;100.00;102709.34;5073730;28;20020;-68
2022/10/19 09:52:40;;;;;;;6.10;1.88;;;;;;;13.38;100.00;102695.56;5080575;28;20029;-68
2022/10/19 09:55:19;;;;;;;9.45;1.48;;;;;;;13.42;100.00;102692.16;5090329;28;20356;-69
2022/10/19 09:57:47;;;;;;;3.47;1.23;;;;;;;13.56;100.00;102699.69;5080762;28;20114;-70
2022/10/19 10:00:24;;;;;;;3.25;1.55;;;;;;;13.82;100.00;102692.59;5082401;28;20491;-68
2022/10/19 10:02:54;;;;;;;7.18;1.30;;;;;;;13.94;100.00;102679.78;5074875;28;20118;-69
2022/10/19 10:05:30;;;;;;;5.60;1.10;;;;;;;14.10;100.00;102673.22;5077305;28;20452;-69
2022/10/19 10:07:55;;;;;;;3.78;1.08;;;;;;;14.10;100.00;102664.41;5074008;28;20029;-70
2022/10/19 10:10:26;;;;;;;9.68;1.80;;;;;;;14.25;100.00;102653.38;5074953;28;20405;-73
2022/10/19 10:12:52;;;;;;;4.35;1.05;;;;;;;14.32;100.00;102650.97;5085193;28;20028;-69
2022/10/19 10:15:23;;;;;;;5.05;1.42;;;;;;;14.03;100.00;102655.38;5082735;28;20009;-70
2022/10/19 10:17:49;;;;;;;6.15;1.20;;;;;;;14.23;100.00;102650.69;5087754;28;20145;-69
2022/10/19 10:20:31;;;;;;;3.08;1.38;;;;;;;14.30;100.00;102643.84;5085309;28;20028;-69
2022/10/19 10:23:02;;;;;;;5.25;1.45;;;;;;;14.27;100.00;102644.63;5080295;28;20032;-68
2022/10/19 10:25:34;;;;;;;10.88;1.48;;;;;;;14.32;100.00;102637.75;5083779;28;20496;-68
2022/10/19 10:28:03;;;;;;;5.95;0.98;;;;;;;14.49;100.00;102640.88;5084363;28;20020;-68
2022/10/19 10:30:34;;;;;;;2.55;0.73;;;;;;;14.74;100.00;102624.81;5086451;28;20146;-68
2022/10/19 10:33:02;;;;;;;8.60;1.15;;;;;;;15.09;100.00;102633.72;5082129;28;20028;-67
2022/10/19 10:35:33;;;;;;;7.32;1.17;;;;;;;15.44;100.00;102631.09;5083825;28;21609;-69
2022/10/19 10:38:15;;;;;;;5.63;1.25;;;;;;;15.71;99.93;102637.94;5084808;28;20540;-69
2022/10/19 10:40:49;;;;;;;3.65;1.10;;;;;;;15.67;94.51;102636.06;5078409;28;20035;-68
2022/10/19 10:43:17;;;;;;;6.40;1.08;;;;;;;15.50;92.87;102620.66;5084404;28;20027;-68
2022/10/19 10:45:47;;;;;;;2.75;1.00;;;;;;;15.60;96.07;102626.16;5084078;28;20111;-67
2022/10/19 10:48:29;;;;;;;3.58;1.30;;;;;;;15.66;94.25;102613.94;5078442;28;20521;-67
2022/10/19 10:50:56;;;;;;;5.65;0.90;;;;;;;15.97;88.81;102605.84;5090911;28;20415;-68
2022/10/19 10:53:40;;;;;;;4.35;0.85;;;;;;;15.92;89.72;102607.47;5076865;28;20020;-68
2022/10/19 10:56:25;;;;;;;8.30;1.20;;;;;;;15.96;89.54;102599.59;5078878;28;20128;-68
2022/10/19 10:59:13;;;;;;;8.23;1.85;;;;;;;16.27;89.40;102602.06;5080294;28;20384;-69
2022/10/19 11:02:11;;;;;;;2.80;1.10;;;;;;;16.36;83.99;102599.59;5080542;28;20380;-69
2022/10/19 11:04:43;;;;;;;10.63;1.65;;;;;;;16.46;85.67;102598.91;5082775;28;20467;-68
2022/10/19 11:07:20;;;;;;;4.63;1.40;;;;;;;16.50;84.39;102606.06;5083869;28;20099;-68
2022/10/19 11:10:17;;;;;;;4.68;1.60;;;;;;;16.74;81.19;102599.47;5077658;28;20055;-68
2022/10/19 11:12:52;;;;;;;4.57;1.55;;;;;;;17.21;82.07;102589.69;5086982;28;20032;-68
2022/10/19 11:15:33;;;;;;;6.43;1.33;;;;;;;17.40;79.48;102599.75;5085831;28;20126;-68
2022/10/19 11:18:12;;;;;;;2.75;1.40;;;;;;;17.53;78.56;102591.09;5082870;28;20059;-69
2022/10/19 11:20:46;;;;;;;6.20;1.52;;;;;;;17.90;75.01;102584.53;5082200;28;20020;-68
2022/10/19 11:23:37;;;;;;;4.43;1.70;;;;;;;17.66;75.44;102580.63;5078370;28;20040;-67
2022/10/19 11:26:24;;;;;;;6.35;1.33;;;;;;;17.80;77.54;102567.53;5079522;28;20476;-67
2022/10/19 11:29:13;;;;;;;7.15;2.13;;;;;;;18.24;72.93;102559.25;5078239;28;20082;-67
2022/10/19 11:31:47;;;;;;;3.78;1.40;;;;;;;18.40;70.97;102555.00;5082098;28;20126;-69
2022/10/19 11:34:35;;;;;;;6.10;1.52;;;;;;;18.70;68.53;102556.22;5083298;28;20039;-69